Amlin, Ohio
Current Conditions -  °F | °C
As of 8:53 PM on Monday 20 Oct 2014 (Local Time) from KOSU Reporting Station
Overcast Overcast  
Wind Chill: 53°   Ceiling: 3300
Heat Index: 53°   Visibility: 10mi
Dew Point: 50°   Wind: 5mph
Humidity: 89%   Direction: 190°S
Pressure: 29.87"   Gusts: NA
Location:  40.08°N, 83.18°W
Report Text: KOSU 210053Z 19004KT 10SM BKN033 OVC040 12/10 A2987 RMK AO2 SLP115 T01170100
Loading
Personal Weather Stations






























Interactive Weather Map New forecast layout! Learn more

10-Day Weather Forecast

Advertisements
Track Severe Weather on mobile